createdAt,value
2016-11-09T00:00:41.008Z,21.76
2016-11-09T00:01:41.254Z,21.69
2016-11-09T00:02:41.191Z,21.77
2016-11-09T00:03:40.827Z,21.73
2016-11-09T00:04:40.766Z,21.76
2016-11-09T00:05:40.697Z,21.69
2016-11-09T00:06:40.632Z,21.7
2016-11-09T00:07:40.570Z,21.79
2016-11-09T00:08:40.552Z,21.79
2016-11-09T00:09:40.452Z,21.75
2016-11-09T00:10:40.396Z,21.72
2016-11-09T00:11:40.333Z,21.67
2016-11-09T00:12:40.273Z,21.77
2016-11-09T00:13:40.207Z,21.77
2016-11-09T00:14:40.144Z,21.8
2016-11-09T00:15:40.085Z,21.72
2016-11-09T00:16:40.322Z,21.73
2016-11-09T00:17:39.958Z,21.67
2016-11-09T00:18:39.897Z,21.73
2016-11-09T00:19:39.836Z,21.73
2016-11-09T00:20:39.770Z,21.72
2016-11-09T00:21:39.709Z,21.72
2016-11-09T00:22:39.652Z,21.75
2016-11-09T00:23:39.898Z,21.72
2016-11-09T00:24:39.525Z,21.7
2016-11-09T00:25:39.462Z,21.7
2016-11-09T00:26:39.399Z,21.7
2016-11-09T00:27:39.337Z,21.69
2016-11-09T00:28:39.479Z,21.77
2016-11-09T00:29:39.227Z,21.77
2016-11-09T00:30:39.157Z,21.69
2016-11-09T00:31:39.093Z,21.75
2016-11-09T00:32:39.029Z,21.75
2016-11-09T00:33:38.967Z,21.76
2016-11-09T00:34:38.909Z,21.7
2016-11-09T00:35:38.847Z,21.85
2016-11-09T00:36:38.784Z,21.76
2016-11-09T00:37:38.721Z,21.75
2016-11-09T00:38:38.662Z,21.69
2016-11-09T00:39:38.606Z,21.67
2016-11-09T00:40:38.537Z,21.66
2016-11-09T00:41:38.477Z,21.73
2016-11-09T00:42:38.414Z,21.75
2016-11-09T00:43:38.353Z,21.72
2016-11-09T00:44:38.306Z,21.67
2016-11-09T00:45:38.263Z,21.76
2016-11-09T00:46:38.165Z,21.73
2016-11-09T00:47:38.221Z,21.76
2016-11-09T00:48:38.046Z,21.66
2016-11-09T00:49:37.987Z,21.7
2016-11-09T00:50:37.925Z,21.7
2016-11-09T00:51:37.855Z,21.77
2016-11-09T00:52:38.102Z,21.77
2016-11-09T00:53:37.731Z,21.66
2016-11-09T00:54:37.875Z,21.7
2016-11-09T00:55:37.612Z,21.73
2016-11-09T00:56:37.556Z,21.69
2016-11-09T00:57:37.488Z,21.73
2016-11-09T00:58:37.425Z,21.77
2016-11-09T00:59:37.364Z,21.79
2016-11-09T01:00:37.305Z,21.69
2016-11-09T01:01:37.252Z,21.7
2016-11-09T01:02:37.180Z,21.69
2016-11-09T01:03:37.122Z,21.69
2016-11-09T01:04:37.060Z,21.72
2016-11-09T01:05:37.000Z,21.7
2016-11-09T01:06:36.931Z,21.76
2016-11-09T01:07:37.172Z,21.79
2016-11-09T01:08:36.806Z,21.77
2016-11-09T01:09:37.057Z,21.75
2016-11-09T01:10:36.683Z,21.79
2016-11-09T01:11:36.627Z,21.76
2016-11-09T01:12:36.565Z,21.8
2016-11-09T01:13:36.506Z,21.76
2016-11-09T01:14:36.439Z,21.66
2016-11-09T01:15:36.375Z,21.75
2016-11-09T01:16:36.317Z,21.75
2016-11-09T01:17:36.256Z,21.67
2016-11-09T01:18:36.193Z,21.72
2016-11-09T01:19:36.132Z,21.75
2016-11-09T01:20:36.064Z,21.76
2016-11-09T01:21:36.037Z,21.69
2016-11-09T01:22:35.943Z,21.79
2016-11-09T01:23:35.882Z,21.77
2016-11-09T01:24:35.820Z,21.76
2016-11-09T01:25:35.756Z,21.7
2016-11-09T01:26:35.708Z,21.72
2016-11-09T01:27:35.639Z,21.79
2016-11-09T01:28:35.570Z,21.72
2016-11-09T01:29:35.512Z,21.72
2016-11-09T01:30:35.448Z,21.72
2016-11-09T01:31:35.387Z,21.75
2016-11-09T01:32:35.322Z,21.77
2016-11-09T01:33:35.268Z,21.69
2016-11-09T01:34:35.206Z,21.67
2016-11-09T01:35:35.140Z,21.72
2016-11-09T01:36:35.384Z,21.73
2016-11-09T01:37:35.018Z,21.69
2016-11-09T01:38:34.962Z,21.7
2016-11-09T01:39:34.895Z,21.8
2016-11-09T01:40:34.833Z,21.77
2016-11-09T01:41:34.766Z,21.72
2016-11-09T01:42:34.707Z,21.72
2016-11-09T01:43:34.648Z,21.67
2016-11-09T01:44:34.585Z,21.76
2016-11-09T01:45:34.524Z,21.76
2016-11-09T01:46:34.764Z,21.75
2016-11-09T01:47:34.400Z,21.77
2016-11-09T01:48:34.368Z,21.76
2016-11-09T01:49:34.582Z,21.79
2016-11-09T01:50:34.216Z,21.8
2016-11-09T01:51:34.454Z,21.73
2016-11-09T01:52:34.090Z,21.7
2016-11-09T01:53:34.030Z,21.82
2016-11-09T01:54:33.968Z,21.67
2016-11-09T01:55:33.905Z,21.77
2016-11-09T01:56:33.842Z,21.75
2016-11-09T01:57:33.783Z,21.72
2016-11-09T01:58:33.730Z,21.76
2016-11-09T01:59:33.696Z,21.73
2016-11-09T02:00:33.599Z,21.72
2016-11-09T02:01:33.537Z,21.66
2016-11-09T02:02:33.482Z,21.7
2016-11-09T02:03:33.415Z,21.72
2016-11-09T02:04:33.353Z,21.69
2016-11-09T02:05:33.291Z,21.69
2016-11-09T02:06:33.226Z,21.76
2016-11-09T02:07:33.172Z,21.76
2016-11-09T02:08:33.103Z,21.75
2016-11-09T02:09:33.040Z,21.73
2016-11-09T02:10:32.975Z,21.64
2016-11-09T02:11:33.258Z,21.7
2016-11-09T02:12:32.856Z,21.69
2016-11-09T02:13:33.099Z,21.75
2016-11-09T02:14:33.034Z,21.76
2016-11-09T02:15:32.673Z,21.64
2016-11-09T02:16:32.920Z,21.79
2016-11-09T02:17:32.550Z,21.76
2016-11-09T02:18:32.486Z,21.76
2016-11-09T02:19:32.540Z,21.8
2016-11-09T02:20:32.363Z,21.73
2016-11-09T02:21:32.608Z,21.72
2016-11-09T02:22:32.543Z,21.76
2016-11-09T02:23:32.219Z,21.7
2016-11-09T02:24:32.114Z,21.8
2016-11-09T02:25:32.050Z,21.73
2016-11-09T02:26:31.995Z,21.7
2016-11-09T02:27:31.934Z,21.73
2016-11-09T02:28:31.876Z,21.73
2016-11-09T02:29:31.864Z,21.72
2016-11-09T02:30:31.759Z,21.72
2016-11-09T02:31:31.697Z,21.75
2016-11-09T02:32:31.621Z,21.7
2016-11-09T02:33:31.563Z,21.69
2016-11-09T02:34:31.499Z,21.79
2016-11-09T02:35:31.439Z,21.77
2016-11-09T02:36:31.371Z,21.7
2016-11-09T02:37:31.350Z,21.72
2016-11-09T02:38:31.289Z,21.72
2016-11-09T02:39:31.210Z,21.72
2016-11-09T02:40:31.131Z,21.72
2016-11-09T02:41:31.066Z,21.79
2016-11-09T02:42:31.005Z,21.62
2016-11-09T02:43:30.961Z,21.64
2016-11-09T02:44:30.879Z,21.67
2016-11-09T02:45:30.818Z,21.72
2016-11-09T02:46:30.756Z,21.82
2016-11-09T02:47:30.697Z,21.73
2016-11-09T02:48:30.632Z,21.72
2016-11-09T02:49:30.578Z,21.67
2016-11-09T02:50:30.507Z,21.7
2016-11-09T02:51:30.454Z,21.69
2016-11-09T02:52:30.413Z,21.67
2016-11-09T02:53:30.325Z,21.75
2016-11-09T02:54:30.258Z,21.75
2016-11-09T02:55:30.200Z,21.69
2016-11-09T02:56:30.141Z,21.75
2016-11-09T02:57:30.078Z,21.76
2016-11-09T02:58:30.022Z,21.76
2016-11-09T02:59:29.951Z,21.72
2016-11-09T03:00:29.891Z,21.7
2016-11-09T03:01:29.833Z,21.76
2016-11-09T03:02:29.768Z,21.76
2016-11-09T03:03:29.701Z,21.83
2016-11-09T03:04:29.648Z,21.76
2016-11-09T03:05:29.621Z,21.73
2016-11-09T03:06:29.519Z,21.64
2016-11-09T03:07:29.456Z,21.75
2016-11-09T03:08:29.398Z,21.7
2016-11-09T03:09:29.335Z,21.69
2016-11-09T03:10:29.574Z,21.75
2016-11-09T03:11:29.215Z,21.72
2016-11-09T03:12:29.148Z,21.82
2016-11-09T03:13:29.090Z,21.67
2016-11-09T03:14:29.028Z,21.79
2016-11-09T03:15:28.963Z,21.8
2016-11-09T03:16:28.900Z,21.77
2016-11-09T03:17:28.845Z,21.7
2016-11-09T03:18:28.776Z,21.67
2016-11-09T03:19:28.752Z,21.76
2016-11-09T03:20:28.653Z,21.73
2016-11-09T03:21:28.593Z,21.72
2016-11-09T03:22:28.535Z,21.73
2016-11-09T03:23:28.773Z,21.7
2016-11-09T03:24:28.409Z,21.72
2016-11-09T03:25:28.342Z,21.73
2016-11-09T03:26:28.286Z,21.75
2016-11-09T03:27:28.224Z,21.7
2016-11-09T03:28:28.159Z,21.72
2016-11-09T03:29:28.106Z,21.73
2016-11-09T03:30:28.042Z,21.8
2016-11-09T03:31:27.973Z,21.75
2016-11-09T03:32:27.914Z,21.73
2016-11-09T03:33:27.852Z,21.75
2016-11-09T03:34:27.788Z,21.7
2016-11-09T03:35:27.729Z,21.7
2016-11-09T03:36:27.669Z,21.75
2016-11-09T03:37:27.603Z,21.77
2016-11-09T03:38:36.106Z,21.72
2016-11-09T03:39:27.482Z,21.77
2016-11-09T03:40:27.420Z,21.79
2016-11-09T03:41:27.363Z,21.72
2016-11-09T03:42:27.298Z,21.77
2016-11-09T03:43:27.345Z,21.62
2016-11-09T03:44:27.171Z,21.77
2016-11-09T03:45:27.110Z,21.73
2016-11-09T03:46:27.054Z,21.75
2016-11-09T03:47:27.031Z,21.76
2016-11-09T03:48:26.920Z,21.76
2016-11-09T03:49:26.863Z,21.7
2016-11-09T03:50:26.802Z,21.73
2016-11-09T03:51:26.742Z,21.75
2016-11-09T03:52:26.679Z,21.72
2016-11-09T03:53:26.618Z,21.82
2016-11-09T03:54:26.555Z,21.76
2016-11-09T03:55:26.808Z,21.72
2016-11-09T03:56:26.433Z,21.7
2016-11-09T03:57:26.376Z,21.7
2016-11-09T03:58:26.310Z,21.7
2016-11-09T03:59:26.246Z,21.7
2016-11-09T04:00:26.184Z,21.77
2016-11-09T04:01:26.125Z,21.85
2016-11-09T04:02:26.063Z,21.72
2016-11-09T04:03:26.000Z,21.75
2016-11-09T04:04:25.945Z,21.7
2016-11-09T04:05:25.885Z,21.82
2016-11-09T04:06:25.812Z,21.73
2016-11-09T04:07:25.748Z,21.7
2016-11-09T04:08:25.689Z,21.72
2016-11-09T04:09:25.673Z,21.82
2016-11-09T04:10:25.565Z,21.75
2016-11-09T04:11:25.501Z,21.73
2016-11-09T04:12:25.443Z,21.7
2016-11-09T04:13:25.385Z,21.73
2016-11-09T04:14:25.321Z,21.75
2016-11-09T04:15:40.155Z,21.67
2016-11-09T04:16:25.196Z,21.77
2016-11-09T04:17:25.134Z,21.64
2016-11-09T04:18:25.070Z,21.82
2016-11-09T04:19:25.009Z,21.7
2016-11-09T04:20:24.948Z,21.67
2016-11-09T04:21:24.890Z,21.82
2016-11-09T04:22:25.130Z,21.73
2016-11-09T04:23:24.765Z,21.69
2016-11-09T04:24:24.700Z,21.82
2016-11-09T04:25:24.642Z,21.7
2016-11-09T04:26:24.578Z,21.76
2016-11-09T04:27:24.513Z,21.73
2016-11-09T04:28:24.487Z,21.73
2016-11-09T04:29:24.400Z,21.67
2016-11-09T04:30:24.328Z,21.75
2016-11-09T04:31:24.270Z,21.72
2016-11-09T04:32:24.206Z,21.75
2016-11-09T04:33:24.148Z,21.79
2016-11-09T04:34:24.087Z,21.69
2016-11-09T04:35:24.034Z,21.82
2016-11-09T04:36:23.962Z,21.7
2016-11-09T04:37:23.926Z,21.67
2016-11-09T04:38:23.866Z,21.79
2016-11-09T04:39:23.774Z,21.75
2016-11-09T04:40:23.718Z,21.75
2016-11-09T04:41:23.655Z,21.75
2016-11-09T04:42:23.702Z,21.72
2016-11-09T04:43:23.528Z,21.7
2016-11-09T04:44:23.463Z,21.72
2016-11-09T04:45:23.409Z,21.69
2016-11-09T04:46:23.343Z,21.73
2016-11-09T04:47:23.284Z,21.76
2016-11-09T04:48:23.234Z,21.7
2016-11-09T04:49:23.161Z,21.69
2016-11-09T04:50:23.099Z,21.73
2016-11-09T04:51:23.034Z,21.79
2016-11-09T04:52:23.303Z,21.76
2016-11-09T04:53:22.913Z,21.73
2016-11-09T04:54:22.849Z,21.67
2016-11-09T04:55:22.790Z,21.76
2016-11-09T04:56:22.722Z,21.77
2016-11-09T04:57:22.664Z,21.77
2016-11-09T04:58:22.601Z,21.77
2016-11-09T04:59:22.535Z,21.7
2016-11-09T05:00:22.796Z,21.7
2016-11-09T05:01:22.425Z,21.75
2016-11-09T05:02:22.351Z,21.7
2016-11-09T05:03:22.296Z,21.76
2016-11-09T05:04:22.233Z,21.73
2016-11-09T05:05:22.171Z,21.76
2016-11-09T05:06:22.104Z,21.7
2016-11-09T05:07:22.045Z,21.73
2016-11-09T05:08:21.985Z,21.73
2016-11-09T05:09:22.223Z,21.73
2016-11-09T05:10:21.859Z,21.67
2016-11-09T05:11:21.799Z,21.69
2016-11-09T05:12:21.740Z,21.7
2016-11-09T05:13:21.687Z,21.72
2016-11-09T05:14:21.614Z,21.72
2016-11-09T05:15:21.552Z,21.72
2016-11-09T05:16:21.487Z,21.7
2016-11-09T05:17:21.430Z,21.66
2016-11-09T05:18:21.366Z,21.57
2016-11-09T05:19:21.308Z,21.61
2016-11-09T05:20:21.239Z,21.6
2016-11-09T05:21:21.187Z,21.58
2016-11-09T05:22:21.122Z,21.58
2016-11-09T05:23:21.056Z,21.48
2016-11-09T05:24:20.994Z,21.51
2016-11-09T05:25:20.936Z,21.5
2016-11-09T05:26:20.885Z,21.51
2016-11-09T05:27:20.813Z,21.45
2016-11-09T05:28:20.745Z,21.43
2016-11-09T05:29:20.694Z,21.4
2016-11-09T05:30:20.626Z,21.5
2016-11-09T05:31:20.868Z,21.43
2016-11-09T05:32:20.503Z,21.45
2016-11-09T05:33:20.439Z,21.4
2016-11-09T05:34:20.380Z,21.42
2016-11-09T05:35:20.315Z,21.4
2016-11-09T05:36:20.252Z,21.39
2016-11-09T05:37:20.191Z,21.37
2016-11-09T05:38:20.125Z,21.39
2016-11-09T05:39:20.069Z,21.37
2016-11-09T05:40:20.307Z,21.35
2016-11-09T05:41:19.945Z,21.32
2016-11-09T05:42:19.884Z,21.35
2016-11-09T05:43:19.817Z,21.4
2016-11-09T05:44:19.764Z,21.36
2016-11-09T05:45:19.690Z,21.32
2016-11-09T05:46:19.634Z,21.29
2016-11-09T05:47:19.880Z,21.29
2016-11-09T05:48:19.820Z,21.33
2016-11-09T05:49:19.445Z,21.32
2016-11-09T05:50:19.384Z,21.3
2016-11-09T05:51:19.322Z,21.25
2016-11-09T05:52:19.264Z,21.36
2016-11-09T05:53:19.198Z,21.35
2016-11-09T05:54:19.169Z,21.3
2016-11-09T05:55:19.075Z,21.33
2016-11-09T05:56:19.014Z,21.39
2016-11-09T05:57:18.952Z,21.35
2016-11-09T05:58:19.191Z,21.3
2016-11-09T05:59:18.831Z,21.25
2016-11-09T06:00:19.189Z,21.25
2016-11-09T06:01:18.709Z,21.3
2016-11-09T06:02:18.644Z,21.29
2016-11-09T06:03:18.578Z,21.27
2016-11-09T06:04:19.255Z,21.27
2016-11-09T06:05:18.452Z,21.21
2016-11-09T06:06:18.392Z,21.29
2016-11-09T06:07:18.330Z,21.27
2016-11-09T06:08:18.269Z,21.27
2016-11-09T06:09:18.208Z,21.25
2016-11-09T06:10:18.145Z,21.24
2016-11-09T06:11:18.085Z,21.3
2016-11-09T06:12:18.018Z,21.22
2016-11-09T06:13:17.957Z,21.22
2016-11-09T06:14:17.895Z,21.22
2016-11-09T06:15:17.837Z,21.22
2016-11-09T06:16:17.773Z,21.22
2016-11-09T06:17:17.714Z,21.21
2016-11-09T06:18:17.651Z,21.22
2016-11-09T06:19:17.588Z,21.27
2016-11-09T06:20:17.528Z,21.24
2016-11-09T06:21:17.767Z,21.21
2016-11-09T06:22:17.403Z,21.33
2016-11-09T06:23:17.335Z,21.24
2016-11-09T06:24:17.487Z,21.22
2016-11-09T06:25:17.214Z,21.25
2016-11-09T06:26:17.163Z,21.15
2016-11-09T06:27:17.091Z,21.2
2016-11-09T06:28:17.029Z,21.24
2016-11-09T06:29:16.965Z,21.18
2016-11-09T06:30:16.924Z,21.24
2016-11-09T06:31:16.843Z,21.14
2016-11-09T06:32:16.785Z,21.15
2016-11-09T06:33:16.728Z,21.15
2016-11-09T06:34:16.671Z,21.12
2016-11-09T06:35:16.606Z,21.15
2016-11-09T06:36:16.536Z,21.12
2016-11-09T06:37:16.789Z,21.21
2016-11-09T06:38:16.413Z,21.11
2016-11-09T06:39:16.353Z,21.07
2016-11-09T06:40:16.283Z,21.11
2016-11-09T06:41:16.227Z,21.12
2016-11-09T06:42:16.219Z,21.12
2016-11-09T06:43:16.306Z,21.11
2016-11-09T06:44:16.046Z,21.11
2016-11-09T06:45:15.992Z,21.15
2016-11-09T06:46:15.912Z,21.07
2016-11-09T06:47:15.858Z,21.14
2016-11-09T06:48:15.833Z,21.15
2016-11-09T06:49:15.773Z,21.12
2016-11-09T06:50:15.665Z,21.09
2016-11-09T06:51:15.641Z,21.12
2016-11-09T06:52:15.741Z,21.14
2016-11-09T06:53:15.490Z,21.15
2016-11-09T06:54:15.421Z,21.17
2016-11-09T06:55:15.353Z,21.11
2016-11-09T06:56:15.323Z,21.12
2016-11-09T06:57:15.230Z,21.11
2016-11-09T06:58:16.367Z,21.11
2016-11-09T06:59:15.106Z,21.17
2016-11-09T07:00:15.050Z,21.11
2016-11-09T07:01:14.999Z,21.14
2016-11-09T07:02:14.928Z,21.11
2016-11-09T07:03:14.858Z,21.07
2016-11-09T07:04:14.796Z,21.11
2016-11-09T07:05:14.766Z,21.15
2016-11-09T07:06:14.681Z,21.07
2016-11-09T07:07:14.620Z,21.12
2016-11-09T07:08:14.584Z,21.07
2016-11-09T07:09:14.597Z,21.11
2016-11-09T07:10:14.425Z,21
2016-11-09T07:11:14.366Z,21.02
2016-11-09T07:12:14.305Z,21.06
2016-11-09T07:13:14.249Z,21
2016-11-09T07:14:14.173Z,21.02
2016-11-09T07:15:14.147Z,21.15
2016-11-09T07:16:14.273Z,21.06
2016-11-09T07:17:14.037Z,21.06
2016-11-09T07:18:13.923Z,21.03
2016-11-09T07:19:13.867Z,21
2016-11-09T07:20:14.421Z,21
2016-11-09T07:21:13.773Z,21.03
2016-11-09T07:22:13.687Z,21.03
2016-11-09T07:23:13.613Z,21.06
2016-11-09T07:24:13.564Z,20.99
2016-11-09T07:25:13.522Z,20.97
2016-11-09T07:26:13.431Z,20.97
2016-11-09T07:27:13.369Z,20.97
2016-11-09T07:28:13.344Z,20.97
2016-11-09T07:29:13.251Z,20.95
2016-11-09T07:30:13.194Z,21.02
2016-11-09T07:31:13.464Z,20.97
2016-11-09T07:32:13.091Z,20.96
2016-11-09T07:33:13.213Z,20.97
2016-11-09T07:34:13.062Z,21
2016-11-09T07:35:13.238Z,20.97
2016-11-09T07:36:12.871Z,20.97
2016-11-09T07:37:12.759Z,20.99
2016-11-09T07:38:12.720Z,21.03
2016-11-09T07:39:18.951Z,21.02
2016-11-09T07:40:12.729Z,21.11
2016-11-09T07:41:12.809Z,21.22
2016-11-09T07:42:12.658Z,21.24
2016-11-09T07:43:12.543Z,21.25
2016-11-09T07:44:12.532Z,21.24
2016-11-09T07:45:12.561Z,21.27
2016-11-09T07:46:12.485Z,21.3
2016-11-09T07:47:12.634Z,21.27
2016-11-09T07:48:12.305Z,21.35
2016-11-09T07:49:12.593Z,21.29
2016-11-09T07:50:12.816Z,21.3
2016-11-09T07:52:12.267Z,21.32
2016-11-09T07:53:12.360Z,21.32
2016-11-09T07:54:11.945Z,21.35
2016-11-09T07:55:11.952Z,21.33
2016-11-09T07:56:12.240Z,21.32
2016-11-09T07:57:11.759Z,21.3
2016-11-09T07:58:12.239Z,21.32
2016-11-09T07:59:11.646Z,21.35
2016-11-09T08:00:11.650Z,21.39
2016-11-09T08:01:11.537Z,21.25
2016-11-09T08:02:11.455Z,21.35
2016-11-09T08:03:11.402Z,21.32
2016-11-09T08:04:11.713Z,21.29
2016-11-09T08:05:11.315Z,21.22
2016-11-09T08:06:11.203Z,21.24
2016-11-09T08:07:11.154Z,21.24
2016-11-09T08:08:11.100Z,21.2
2016-11-09T08:09:11.026Z,21.2
2016-11-09T08:10:11.151Z,21.2
2016-11-09T08:11:10.892Z,21.2
2016-11-09T08:12:10.814Z,21.18
2016-11-09T08:13:10.738Z,21.2
2016-11-09T08:14:10.687Z,21.14
2016-11-09T08:15:10.523Z,21.17
2016-11-09T08:16:10.451Z,21.22
2016-11-09T08:17:10.289Z,21.18
2016-11-09T08:18:10.234Z,21.11
2016-11-09T08:19:10.144Z,21.14
2016-11-09T08:20:10.302Z,21.11
2016-11-09T08:21:10.120Z,21.12
2016-11-09T08:22:09.990Z,21.15
2016-11-09T08:23:10.053Z,21.14
2016-11-09T08:24:10.052Z,21.12
2016-11-09T08:25:09.970Z,21.15
2016-11-09T08:26:10.263Z,21.15
2016-11-09T08:27:09.813Z,21.15
2016-11-09T08:28:09.818Z,21.14
2016-11-09T08:29:09.603Z,21.09
2016-11-09T08:30:09.462Z,21.09
2016-11-09T08:31:09.387Z,21.11
2016-11-09T08:32:09.327Z,21.09
2016-11-09T08:33:09.616Z,21.09
2016-11-09T08:34:09.276Z,21.11
2016-11-09T08:35:09.139Z,21.15
2016-11-09T08:36:09.085Z,21.17
2016-11-09T08:37:09.013Z,21.11
2016-11-09T08:38:08.949Z,21.11
2016-11-09T08:39:09.183Z,21.14
2016-11-09T08:40:08.835Z,21.17
2016-11-09T08:41:08.750Z,21.18
2016-11-09T08:42:08.694Z,21.21
2016-11-09T08:43:08.661Z,21.22
2016-11-09T08:44:08.895Z,21.22
2016-11-09T08:45:08.525Z,21.21
2016-11-09T08:46:08.458Z,21.18
2016-11-09T08:47:08.383Z,21.21
2016-11-09T08:48:08.627Z,21.24
2016-11-09T08:49:08.267Z,21.21
2016-11-09T08:50:08.209Z,21.12
2016-11-09T08:51:08.128Z,21.15
2016-11-09T08:52:08.062Z,21.21
2016-11-09T08:53:08.321Z,21.24
2016-11-09T08:54:07.941Z,21.24
2016-11-09T08:55:07.883Z,21.22
2016-11-09T08:56:07.849Z,21.2
2016-11-09T08:57:07.753Z,21.18
2016-11-09T08:58:07.698Z,21.24
2016-11-09T08:59:07.629Z,21.24
2016-11-09T09:00:07.583Z,21.2
2016-11-09T09:01:07.558Z,21.2
2016-11-09T09:02:07.456Z,21.2
2016-11-09T09:03:07.426Z,21.17
2016-11-09T09:04:07.617Z,21.18
2016-11-09T09:05:07.277Z,21.2
2016-11-09T09:06:07.680Z,21.14
2016-11-09T09:07:07.451Z,21.09
2016-11-09T09:08:07.233Z,21.09
2016-11-09T09:09:07.026Z,21.15
2016-11-09T09:10:06.959Z,21.12
2016-11-09T09:11:07.237Z,21.14
2016-11-09T09:12:06.857Z,21.07
2016-11-09T09:13:06.825Z,21.11
2016-11-09T09:14:06.748Z,21.07
2016-11-09T09:15:07.111Z,21.09
2016-11-09T09:16:06.639Z,21.14
2016-11-09T09:17:06.523Z,21.17
2016-11-09T09:18:06.459Z,21.14
2016-11-09T09:19:06.556Z,21.15
2016-11-09T09:20:06.903Z,21.11
2016-11-09T09:21:06.655Z,21.14
2016-11-09T09:22:06.260Z,21.12
2016-11-09T09:23:06.198Z,21.06
2016-11-09T09:24:06.174Z,21.18
2016-11-09T09:25:06.148Z,21.09
2016-11-09T09:26:06.157Z,21.12
2016-11-09T09:27:06.020Z,21.14
2016-11-09T09:28:05.974Z,21.22
2016-11-09T09:29:06.016Z,21.22
2016-11-09T09:30:05.865Z,21.14
2016-11-09T09:31:05.841Z,21.21
2016-11-09T09:32:05.817Z,21.25
2016-11-09T09:33:05.781Z,21.25
2016-11-09T09:34:05.529Z,21.24
2016-11-09T09:35:05.631Z,21.15
2016-11-09T09:36:05.363Z,21.11
2016-11-09T09:37:05.291Z,21.18
2016-11-09T09:38:05.283Z,21.21
2016-11-09T09:39:05.350Z,21.12
2016-11-09T09:40:05.109Z,21.18
2016-11-09T09:41:05.068Z,21.11
2016-11-09T09:42:05.021Z,21.14
2016-11-09T09:43:05.024Z,21.09
2016-11-09T09:44:04.861Z,21.18
2016-11-09T09:45:04.820Z,21.06
2016-11-09T09:46:04.834Z,21.09
2016-11-09T09:47:04.832Z,21.12
2016-11-09T09:48:04.687Z,21.18
2016-11-09T09:49:04.526Z,21.11
2016-11-09T09:50:04.446Z,21.11
2016-11-09T09:51:04.416Z,21.09
2016-11-09T09:52:04.360Z,21.11
2016-11-09T09:53:04.282Z,21.14
2016-11-09T09:54:04.199Z,21.14
2016-11-09T09:55:04.145Z,21.21
2016-11-09T09:56:04.068Z,21.14
2016-11-09T09:57:04.042Z,21.3
2016-11-09T09:58:03.962Z,21.27
2016-11-09T09:59:03.895Z,21.18
2016-11-09T10:00:03.835Z,21.21
2016-11-09T10:01:03.761Z,21.29
2016-11-09T10:02:03.740Z,21.22
2016-11-09T10:03:04.066Z,21.24
2016-11-09T10:04:03.574Z,21.27
2016-11-09T10:05:03.554Z,21.24
2016-11-09T10:06:03.768Z,21.27
2016-11-09T10:07:03.396Z,21.36
2016-11-09T10:08:03.628Z,21.32
2016-11-09T10:09:03.264Z,21.21
2016-11-09T10:10:03.758Z,21.25
2016-11-09T10:11:03.163Z,21.2
2016-11-09T10:12:03.488Z,21.2
2016-11-09T10:13:03.015Z,21.2
2016-11-09T10:14:02.973Z,21.2
2016-11-09T10:15:03.192Z,21.21
2016-11-09T10:16:02.862Z,21.27
2016-11-09T10:17:02.764Z,21.25
2016-11-09T10:18:02.709Z,21.22
2016-11-09T10:19:02.633Z,21.24
2016-11-09T10:20:02.565Z,21.22
2016-11-09T10:21:02.510Z,21.29
2016-11-09T10:22:02.457Z,21.24
2016-11-09T10:23:02.391Z,21.22
2016-11-09T10:24:02.647Z,21.15
2016-11-09T10:25:02.764Z,21.12
2016-11-09T10:26:02.215Z,21.12
2016-11-09T10:27:02.431Z,21.11
2016-11-09T10:28:02.105Z,21.12
2016-11-09T10:29:02.029Z,21.12
2016-11-09T10:30:01.946Z,21.09
2016-11-09T10:31:02.006Z,21.11
2016-11-09T10:32:01.818Z,21.06
2016-11-09T10:33:01.756Z,21.07
2016-11-09T10:34:01.718Z,21.03
2016-11-09T10:35:01.931Z,21
2016-11-09T10:36:01.570Z,21.07
2016-11-09T10:37:01.508Z,21.07
2016-11-09T10:38:01.470Z,21.11
2016-11-09T10:39:02.040Z,21.07
2016-11-09T10:40:01.373Z,21.12
2016-11-09T10:41:01.332Z,21
2016-11-09T10:42:01.224Z,21.11
2016-11-09T10:43:01.188Z,21.05
2016-11-09T10:44:01.168Z,21
2016-11-09T10:45:01.003Z,21.06
2016-11-09T10:46:01.006Z,21.02
2016-11-09T10:47:00.929Z,21
2016-11-09T10:48:00.870Z,21.06
2016-11-09T10:49:00.790Z,21.07
2016-11-09T10:50:00.733Z,21.05
2016-11-09T10:51:00.833Z,21.09
2016-11-09T10:52:00.600Z,21
2016-11-09T10:53:00.562Z,20.97
2016-11-09T10:54:00.459Z,21
2016-11-09T10:55:00.389Z,20.97
2016-11-09T10:56:00.670Z,21.03
2016-11-09T10:57:00.298Z,20.97
2016-11-09T10:58:00.274Z,21.11
2016-11-09T10:59:00.511Z,20.99
2016-11-09T11:00:00.113Z,20.96
2016-11-09T11:01:00.072Z,20.97
2016-11-09T11:01:59.948Z,21
2016-11-09T11:02:59.882Z,21
2016-11-09T11:03:59.824Z,20.99
2016-11-09T11:04:59.769Z,20.99
2016-11-09T11:05:59.696Z,20.95
2016-11-09T11:06:59.641Z,20.96
2016-11-09T11:07:59.565Z,21
2016-11-09T11:08:59.510Z,20.97
2016-11-09T11:09:59.754Z,21
2016-11-09T11:10:59.390Z,21
2016-11-09T11:11:59.373Z,20.99
2016-11-09T11:12:59.272Z,20.97
2016-11-09T11:13:59.239Z,21.07
2016-11-09T11:14:59.138Z,21.07
2016-11-09T11:15:59.091Z,20.99
2016-11-09T11:16:59.008Z,20.99
2016-11-09T11:17:58.970Z,21.07
2016-11-09T11:18:58.882Z,21.11
2016-11-09T11:19:58.823Z,21.11
2016-11-09T11:20:59.067Z,21.07
2016-11-09T11:21:58.716Z,21.06
2016-11-09T11:22:58.667Z,21.14
2016-11-09T11:23:58.581Z,21.11
2016-11-09T11:24:58.527Z,21.12
2016-11-09T11:25:58.448Z,21.03
2016-11-09T11:26:58.398Z,21.11
2016-11-09T11:27:58.341Z,21.12
2016-11-09T11:28:58.559Z,21.05
2016-11-09T11:29:58.198Z,21.12
2016-11-09T11:30:58.132Z,21.07
2016-11-09T11:31:58.070Z,21.14
2016-11-09T11:32:58.035Z,21.18
2016-11-09T11:33:58.254Z,21.14
2016-11-09T11:34:57.888Z,21.14
2016-11-09T11:35:58.131Z,21.17
2016-11-09T11:36:58.063Z,21.09
2016-11-09T11:37:58.059Z,21.14
2016-11-09T11:38:58.030Z,21.12
2016-11-09T11:40:35.997Z,21.11
2016-11-09T11:40:57.507Z,21.14
2016-11-09T11:41:57.761Z,21.07
2016-11-09T11:42:57.385Z,21.11
2016-11-09T11:43:57.326Z,21.15
2016-11-09T11:44:57.264Z,21.15
2016-11-09T11:45:57.198Z,21.07
2016-11-09T11:46:57.146Z,21.12
2016-11-09T11:47:57.083Z,21.11
2016-11-09T11:48:57.016Z,21.18
2016-11-09T11:49:56.949Z,21.12
2016-11-09T11:50:56.889Z,21.14
2016-11-09T11:51:56.817Z,21.21
2016-11-09T11:52:56.760Z,21.14
2016-11-09T11:53:56.692Z,21.14
2016-11-09T11:54:56.635Z,21.2
2016-11-09T11:55:56.579Z,21.12
2016-11-09T11:56:56.525Z,21.17
2016-11-09T11:57:56.546Z,21.15
2016-11-09T11:58:56.386Z,21.2
2016-11-09T11:59:56.324Z,21.21
2016-11-09T12:00:56.486Z,21.17
2016-11-09T12:01:56.227Z,21.2
2016-11-09T12:02:56.138Z,21.2
2016-11-09T12:03:56.079Z,21.22
2016-11-09T12:04:56.313Z,21.18
2016-11-09T12:05:55.970Z,21.22
2016-11-09T12:06:55.983Z,21.2
2016-11-09T12:07:55.845Z,21.25
2016-11-09T12:08:55.801Z,21.15
2016-11-09T12:09:55.707Z,21.2
2016-11-09T12:10:55.635Z,21.2
2016-11-09T12:11:55.606Z,21.18
2016-11-09T12:12:55.515Z,21.18
2016-11-09T12:13:55.464Z,21.17
2016-11-09T12:14:55.705Z,21.11
2016-11-09T12:15:55.780Z,21.14
2016-11-09T12:16:55.463Z,21.14
2016-11-09T12:17:55.200Z,21.11
2016-11-09T12:18:55.141Z,21.12
2016-11-09T12:19:55.406Z,21.15
2016-11-09T12:20:55.348Z,21.09
2016-11-09T12:21:54.955Z,21.12
2016-11-09T12:22:54.898Z,21.12
2016-11-09T12:23:54.827Z,21.17
2016-11-09T12:24:54.764Z,21.11
2016-11-09T12:25:54.709Z,21.07
2016-11-09T12:26:54.667Z,21.15
2016-11-09T12:27:54.576Z,21.14
2016-11-09T12:28:54.510Z,21.12
2016-11-09T12:29:54.454Z,21.14
2016-11-09T12:30:54.723Z,21.12
2016-11-09T12:31:54.330Z,21.18
2016-11-09T12:32:54.270Z,21.06
2016-11-09T12:33:54.228Z,21.14
2016-11-09T12:34:54.139Z,21.12
2016-11-09T12:35:54.074Z,21.12
2016-11-09T12:36:54.019Z,21.09
2016-11-09T12:37:53.953Z,21.14
2016-11-09T12:38:53.903Z,21.09
2016-11-09T12:39:53.828Z,21.14
2016-11-09T12:40:53.957Z,21.14
2016-11-09T12:41:53.700Z,21.12
2016-11-09T12:42:53.957Z,21.15
2016-11-09T12:43:53.912Z,21.11
2016-11-09T12:44:53.523Z,21.09
2016-11-09T12:45:53.758Z,21.11
2016-11-09T12:46:53.397Z,21.21
2016-11-09T12:47:53.339Z,21.22
2016-11-09T12:48:53.291Z,21.18
2016-11-09T12:49:53.334Z,21.11
2016-11-09T12:50:53.464Z,21.22
2016-11-09T12:51:53.430Z,21.17
2016-11-09T12:52:53.025Z,21.22
2016-11-09T12:53:53.270Z,21.25
2016-11-09T12:54:53.215Z,21.17
2016-11-09T12:55:52.872Z,21.22
2016-11-09T12:56:53.083Z,21.18
2016-11-09T12:57:52.711Z,21.2